createdAt,value
2023-03-03T03:13:40.373Z,102033.31
2023-03-03T03:16:43.337Z,102037.50
2023-03-03T03:19:45.961Z,102035.00
2023-03-03T03:22:48.742Z,102031.53
2023-03-03T03:25:51.486Z,102028.88
2023-03-03T03:28:55.892Z,102034.06
2023-03-03T03:31:58.566Z,102036.66
2023-03-03T03:35:01.330Z,102041.19
2023-03-03T03:38:04.273Z,102044.56
2023-03-03T03:41:07.965Z,102039.31
2023-03-03T03:44:12.197Z,102038.94
2023-03-03T03:47:14.787Z,102030.28
2023-03-03T03:50:17.508Z,102040.53
2023-03-03T03:53:20.491Z,102046.00
2023-03-03T03:56:23.087Z,102036.50
2023-03-03T03:59:27.033Z,102033.81
2023-03-03T04:02:29.829Z,102024.16
2023-03-03T04:05:32.491Z,102013.72
2023-03-03T04:08:35.094Z,102017.97
2023-03-03T04:11:37.695Z,102016.34
2023-03-03T04:14:41.720Z,102018.13
2023-03-03T04:17:44.424Z,102017.13
2023-03-03T04:20:47.051Z,102017.81
2023-03-03T04:23:49.655Z,102012.84
2023-03-03T04:26:52.251Z,102012.91
2023-03-03T04:29:56.173Z,102016.44
2023-03-03T04:32:58.889Z,102019.78
2023-03-03T04:36:01.464Z,102017.69
2023-03-03T04:39:04.292Z,102025.63
2023-03-03T04:42:07.065Z,102023.00
2023-03-03T04:45:12.390Z,102024.72
2023-03-03T04:48:15.247Z,102017.81
2023-03-03T04:51:18.656Z,102019.56
2023-03-03T04:54:21.285Z,102032.69
2023-03-03T04:57:23.886Z,102024.16
2023-03-03T05:00:27.886Z,102025.03
2023-03-03T05:03:30.563Z,102028.53
2023-03-03T05:06:33.257Z,102036.50
2023-03-03T05:09:35.918Z,102028.63
2023-03-03T05:12:38.550Z,102027.75
2023-03-03T05:15:43.449Z,102029.44
2023-03-03T05:18:46.539Z,102024.22
2023-03-03T05:21:49.140Z,102024.25
2023-03-03T05:24:51.778Z,102023.34
2023-03-03T05:27:54.891Z,102023.34
2023-03-03T05:30:58.848Z,102024.22
2023-03-03T05:34:01.433Z,102031.22
2023-03-03T05:37:06.690Z,102026.63
2023-03-03T05:40:10.737Z,102030.28
2023-03-03T05:43:13.330Z,102039.03
2023-03-03T05:46:17.333Z,102039.03
2023-03-03T05:49:19.935Z,102043.16
2023-03-03T05:52:24.208Z,102040.59
2023-03-03T05:55:26.832Z,102035.84
2023-03-03T05:58:29.435Z,102035.91
2023-03-03T06:01:33.790Z,102038.78
2023-03-03T06:04:36.435Z,102037.00
2023-03-03T06:07:39.023Z,102034.59
2023-03-03T06:10:41.621Z,102037.97
2023-03-03T06:13:44.226Z,102038.75
2023-03-03T06:16:48.303Z,102053.63
2023-03-03T06:19:50.987Z,102050.03
2023-03-03T06:22:53.635Z,102044.09
2023-03-03T06:25:56.325Z,102051.09
2023-03-03T06:28:59.668Z,102060.75
2023-03-03T06:32:03.994Z,102060.59
2023-03-03T06:35:07.551Z,102071.31
2023-03-03T06:38:10.143Z,102075.75
2023-03-03T06:41:13.107Z,102066.88
2023-03-03T06:44:15.749Z,102062.44
2023-03-03T06:47:19.673Z,102060.06
2023-03-03T06:50:22.414Z,102067.78
2023-03-03T06:53:26.496Z,102065.81
2023-03-03T06:56:29.605Z,102071.34
2023-03-03T06:59:32.201Z,102063.88
2023-03-03T07:02:36.130Z,102065.06
2023-03-03T07:05:38.741Z,102064.66
2023-03-03T07:08:41.686Z,102072.81
2023-03-03T07:11:46.542Z,102078.97
2023-03-03T07:14:55.481Z,102099.22
2023-03-03T07:17:59.690Z,102102.66
2023-03-03T07:21:14.297Z,102113.38
2023-03-03T07:24:27.095Z,102115.34
2023-03-03T07:27:32.129Z,102113.81
2023-03-03T07:30:34.747Z,102111.31
2023-03-03T07:33:44.739Z,102113.75
2023-03-03T07:36:47.401Z,102115.16
2023-03-03T07:39:51.645Z,102117.00
2023-03-03T07:42:54.238Z,102120.94
2023-03-03T07:46:02.759Z,102122.06
2023-03-03T07:49:21.536Z,102123.13
2023-03-03T07:52:30.612Z,102120.50
2023-03-03T07:55:37.244Z,102115.06
2023-03-03T07:58:41.911Z,102110.53
2023-03-03T08:01:49.302Z,102101.22
2023-03-03T08:04:54.753Z,102110.06
2023-03-03T08:08:13.219Z,102109.19
2023-03-03T08:11:15.870Z,102107.50
2023-03-03T08:14:26.507Z,102116.28
2023-03-03T08:17:37.729Z,102109.28
2023-03-03T08:20:46.343Z,102107.31
2023-03-03T08:23:51.498Z,102104.75
2023-03-03T08:26:54.074Z,102110.94
2023-03-03T08:29:56.706Z,102104.44
2023-03-03T08:32:59.364Z,102108.81
2023-03-03T08:36:03.368Z,102107.34
2023-03-03T08:39:06.449Z,102110.66
2023-03-03T08:42:09.020Z,102107.38
2023-03-03T08:45:11.641Z,102105.72
2023-03-03T08:48:15.034Z,102100.50
2023-03-03T08:51:19.117Z,102105.56
2023-03-03T08:54:21.684Z,102109.97
2023-03-03T08:57:24.394Z,102109.66
2023-03-03T09:00:27.517Z,102105.50
2023-03-03T09:03:30.809Z,102106.38
2023-03-03T09:06:34.797Z,102109.81
2023-03-03T09:09:38.647Z,102116.28
2023-03-03T09:12:44.046Z,102108.31
2023-03-03T09:15:49.180Z,102119.63
2023-03-03T09:18:51.876Z,102127.56
2023-03-03T09:21:57.527Z,102125.97
2023-03-03T09:25:00.723Z,102128.19
2023-03-03T09:28:04.233Z,102121.31
2023-03-03T09:31:23.194Z,102115.53
2023-03-03T09:34:32.164Z,102118.09
2023-03-03T09:37:40.388Z,102121.59
2023-03-03T09:40:56.154Z,102130.50
2023-03-03T09:44:17.205Z,102134.81
2023-03-03T09:47:48.110Z,102133.84
2023-03-03T09:51:04.220Z,102137.44
2023-03-03T09:54:18.846Z,102135.44
2023-03-03T09:57:30.505Z,102136.41
2023-03-03T10:00:42.982Z,102142.59
2023-03-03T10:04:17.094Z,102139.13
2023-03-03T10:07:28.638Z,102141.22
2023-03-03T10:10:50.054Z,102141.16
2023-03-03T10:14:19.780Z,102148.09
2023-03-03T10:17:38.289Z,102145.38
2023-03-03T10:20:58.459Z,102143.47
2023-03-03T10:24:15.601Z,102137.53
2023-03-03T10:27:37.806Z,102136.56
2023-03-03T10:31:04.664Z,102138.56
2023-03-03T10:34:22.168Z,102131.66
2023-03-03T10:37:31.839Z,102131.94
2023-03-03T10:40:38.662Z,102126.94
2023-03-03T10:43:59.833Z,102124.22
2023-03-03T10:47:35.595Z,102122.47
2023-03-03T10:50:51.461Z,102116.28
2023-03-03T10:54:07.735Z,102123.28
2023-03-03T10:57:19.796Z,102123.25
2023-03-03T11:00:27.645Z,102113.97
2023-03-03T11:04:08.720Z,102122.84
2023-03-03T11:07:20.807Z,102113.38
2023-03-03T11:10:37.994Z,102118.44
2023-03-03T11:13:46.993Z,102113.22
2023-03-03T11:17:02.518Z,102099.25
2023-03-03T11:20:10.689Z,102095.84
2023-03-03T11:23:30.674Z,102094.84
2023-03-03T11:26:44.523Z,102092.41
2023-03-03T11:30:10.096Z,102086.38
2023-03-03T11:33:21.744Z,102084.63
2023-03-03T11:36:29.943Z,102084.56
2023-03-03T11:39:32.615Z,102087.34
2023-03-03T11:42:47.956Z,102085.56
2023-03-03T11:45:56.286Z,102075.94
2023-03-03T11:49:06.008Z,102076.78
2023-03-03T11:52:21.475Z,102068.03
2023-03-03T11:55:31.487Z,102064.56
2023-03-03T11:58:43.662Z,102061.09
2023-03-03T12:01:53.394Z,102053.19
2023-03-03T12:05:01.079Z,102054.94
2023-03-03T12:08:16.505Z,102054.91
2023-03-03T12:11:25.548Z,102047.94
2023-03-03T12:14:42.831Z,102046.16
2023-03-03T12:18:17.061Z,102041.78
2023-03-03T12:21:41.416Z,102028.66
2023-03-03T12:24:58.102Z,102033.91
2023-03-03T12:28:07.262Z,102025.16
2023-03-03T12:31:22.641Z,102033.06
2023-03-03T12:34:35.437Z,102023.38
2023-03-03T12:37:50.723Z,102013.72
2023-03-03T12:41:01.704Z,102019.00
2023-03-03T12:44:09.329Z,102010.25
2023-03-03T12:47:19.912Z,102013.72
2023-03-03T12:50:33.572Z,101995.28
2023-03-03T12:53:52.203Z,101985.44
2023-03-03T12:56:56.519Z,101984.94
2023-03-03T13:00:22.984Z,101957.84
2023-03-03T13:03:53.300Z,101955.16
2023-03-03T13:07:05.667Z,101955.13
2023-03-03T13:10:19.421Z,101950.59
2023-03-03T13:13:28.666Z,101961.69
2023-03-03T13:16:41.482Z,101962.13
2023-03-03T13:19:50.401Z,101952.56
2023-03-03T13:22:59.202Z,101947.97
2023-03-03T13:26:08.861Z,101950.56
2023-03-03T13:29:20.432Z,101952.25
2023-03-03T13:32:24.924Z,101956.00
2023-03-03T13:35:38.783Z,101945.34
2023-03-03T13:38:44.025Z,101945.31
2023-03-03T13:41:56.900Z,101942.38
2023-03-03T13:45:02.893Z,101932.03
2023-03-03T13:48:16.200Z,101935.88
2023-03-03T13:51:27.652Z,101921.13
2023-03-03T13:55:01.142Z,101927.97
2023-03-03T13:58:12.665Z,101924.47
2023-03-03T14:01:21.865Z,101909.53
2023-03-03T14:04:33.870Z,101913.22
2023-03-03T14:07:42.480Z,101899.16
2023-03-03T14:10:50.124Z,101900.81
2023-03-03T14:14:03.642Z,101893.84
2023-03-03T14:17:16.759Z,101891.16
2023-03-03T14:20:25.054Z,101884.88
2023-03-03T14:23:35.815Z,101884.84
2023-03-03T14:26:49.350Z,101890.91
2023-03-03T14:29:53.336Z,101875.31
2023-03-03T14:33:06.490Z,101870.88
2023-03-03T14:36:15.912Z,101870.16
2023-03-03T14:39:31.574Z,101859.56
2023-03-03T14:42:38.062Z,101871.94
2023-03-03T14:45:43.066Z,101865.78
2023-03-03T14:48:52.165Z,101851.78
2023-03-03T14:51:54.885Z,101859.72
2023-03-03T14:55:00.362Z,101851.00
2023-03-03T14:58:04.101Z,101857.09
2023-03-03T15:01:22.112Z,101830.69
2023-03-03T15:04:26.546Z,101832.38
2023-03-03T15:07:34.330Z,101843.03
2023-03-03T15:10:38.482Z,101833.44
2023-03-03T15:13:41.128Z,101823.72
2023-03-03T15:16:45.442Z,101829.09
2023-03-03T15:20:19.860Z,101821.22
2023-03-03T15:23:38.383Z,101826.47
2023-03-03T15:26:48.258Z,101829.19
2023-03-03T15:30:02.680Z,101822.16
2023-03-03T15:33:20.620Z,101823.13
2023-03-03T15:36:32.134Z,101824.03
2023-03-03T15:39:44.393Z,101818.75
2023-03-03T15:42:50.363Z,101824.88
2023-03-03T15:46:03.439Z,101809.97
2023-03-03T15:49:21.410Z,101810.69
2023-03-03T15:52:38.120Z,101798.47
2023-03-03T15:55:53.736Z,101800.25
2023-03-03T15:59:23.433Z,101804.59
2023-03-03T16:02:33.987Z,101803.69
2023-03-03T16:05:45.777Z,101794.97
2023-03-03T16:09:00.159Z,101801.13
2023-03-03T16:12:13.427Z,101797.66
2023-03-03T16:15:50.632Z,101802.81
2023-03-03T16:19:04.428Z,101806.34
2023-03-03T16:22:47.986Z,101802.81
2023-03-03T16:26:07.621Z,101804.53
2023-03-03T16:29:33.359Z,101804.53
2023-03-03T16:32:42.605Z,101813.44
2023-03-03T16:35:53.211Z,101811.63
2023-03-03T16:39:04.710Z,101811.72
2023-03-03T16:42:16.017Z,101814.25
2023-03-03T16:45:23.968Z,101816.97
2023-03-03T16:48:43.739Z,101811.66
2023-03-03T16:51:51.213Z,101806.41
2023-03-03T16:54:58.272Z,101813.41
2023-03-03T16:58:15.607Z,101810.84
2023-03-03T17:01:27.894Z,101804.78
2023-03-03T17:04:40.874Z,101808.25
2023-03-03T17:07:45.688Z,101814.47
2023-03-03T17:10:56.413Z,101809.16
2023-03-03T17:14:13.959Z,101808.38
2023-03-03T17:17:27.478Z,101812.81
2023-03-03T17:20:36.403Z,101813.69
2023-03-03T17:23:50.665Z,101810.13
2023-03-03T17:27:06.905Z,101809.16
2023-03-03T17:30:17.921Z,101813.53
2023-03-03T17:33:36.627Z,101815.34
2023-03-03T17:36:51.073Z,101814.56
2023-03-03T17:40:18.829Z,101815.41
2023-03-03T17:43:26.672Z,101811.00
2023-03-03T17:46:35.406Z,101811.91
2023-03-03T17:49:52.483Z,101811.06
2023-03-03T17:53:08.246Z,101807.50
2023-03-03T17:56:19.458Z,101805.78
2023-03-03T17:59:41.474Z,101804.84
2023-03-03T18:03:19.722Z,101803.06
2023-03-03T18:06:39.720Z,101813.63
2023-03-03T18:09:59.915Z,101810.16
2023-03-03T18:13:10.029Z,101809.31
2023-03-03T18:16:25.908Z,101811.94
2023-03-03T18:19:49.004Z,101801.41
2023-03-03T18:22:53.491Z,101808.41
2023-03-03T18:25:58.684Z,101804.84
2023-03-03T18:29:20.966Z,101809.25
2023-03-03T18:32:25.290Z,101815.38
2023-03-03T18:35:32.395Z,101807.38
2023-03-03T18:38:41.625Z,101804.81
2023-03-03T18:42:09.366Z,101806.56
2023-03-03T18:45:53.587Z,101806.56
2023-03-03T18:49:01.666Z,101800.41
2023-03-03T18:52:21.045Z,101791.66
2023-03-03T18:55:26.987Z,101784.63
2023-03-03T18:58:35.834Z,101782.00
2023-03-03T19:01:44.963Z,101783.84
2023-03-03T19:04:55.432Z,101789.13
2023-03-03T19:08:00.692Z,101790.03
2023-03-03T19:11:04.352Z,101785.66
2023-03-03T19:14:25.546Z,101782.97
2023-03-03T19:17:50.568Z,101784.78
2023-03-03T19:21:00.823Z,101783.88
2023-03-03T19:24:04.845Z,101780.41
2023-03-03T19:27:32.084Z,101769.94
2023-03-03T19:30:46.079Z,101771.69
2023-03-03T19:33:57.024Z,101764.63
2023-03-03T19:37:14.652Z,101762.84
2023-03-03T19:40:26.029Z,101761.09
2023-03-03T19:43:39.382Z,101769.91
2023-03-03T19:46:55.828Z,101767.28
2023-03-03T19:50:18.276Z,101775.19
2023-03-03T19:53:32.068Z,101774.34
2023-03-03T19:56:41.426Z,101770.00
2023-03-03T19:59:50.348Z,101770.88
2023-03-03T20:03:12.804Z,101771.75
2023-03-03T20:06:32.824Z,101777.88
2023-03-03T20:09:46.123Z,101773.50
2023-03-03T20:13:03.645Z,101765.63
2023-03-03T20:16:17.772Z,101762.09
2023-03-03T20:19:37.665Z,101758.66
2023-03-03T20:22:48.016Z,101751.59
2023-03-03T20:25:56.848Z,101757.75
2023-03-03T20:29:33.709Z,101754.22
2023-03-03T20:32:59.145Z,101755.09
2023-03-03T20:36:11.692Z,101753.34
2023-03-03T20:39:22.520Z,101748.06
2023-03-03T20:42:38.831Z,101755.06
2023-03-03T20:45:55.266Z,101750.63
2023-03-03T20:49:20.898Z,101753.28
2023-03-03T20:52:32.895Z,101758.59
2023-03-03T20:55:43.680Z,101750.66
2023-03-03T20:59:05.882Z,101748.88
2023-03-03T21:02:18.918Z,101739.22
2023-03-03T21:05:23.186Z,101740.16
2023-03-03T21:08:44.726Z,101732.25
2023-03-03T21:11:47.428Z,101732.19
2023-03-03T21:15:00.854Z,101734.84
2023-03-03T21:18:21.973Z,101732.19
2023-03-03T21:21:24.673Z,101733.03
2023-03-03T21:24:49.115Z,101739.16
2023-03-03T21:27:51.751Z,101731.19
2023-03-03T21:31:10.820Z,101729.50
2023-03-03T21:34:28.056Z,101729.50
2023-03-03T21:37:45.985Z,101720.69
2023-03-03T21:41:00.486Z,101715.38
2023-03-03T21:44:03.108Z,101717.13
2023-03-03T21:47:08.741Z,101717.97
2023-03-03T21:50:12.425Z,101713.63
2023-03-03T21:53:15.011Z,101699.47
2023-03-03T21:56:17.625Z,101710.88
2023-03-03T21:59:20.587Z,101704.66
2023-03-03T22:02:24.563Z,101709.91
2023-03-03T22:05:27.120Z,101701.06
2023-03-03T22:08:29.918Z,101702.91
2023-03-03T22:11:32.703Z,101695.91
2023-03-03T22:14:35.539Z,101701.06
2023-03-03T22:17:40.660Z,101699.38
2023-03-03T22:20:43.239Z,101697.59
2023-03-03T22:23:45.825Z,101708.13
2023-03-03T22:26:48.440Z,101688.72
2023-03-03T22:29:51.007Z,101690.56
2023-03-03T22:32:55.242Z,101689.66
2023-03-03T22:35:57.909Z,101697.53
2023-03-03T22:39:00.893Z,101686.09
2023-03-03T22:42:03.595Z,101692.25
2023-03-03T22:45:07.108Z,101682.78
2023-03-03T22:48:11.622Z,101681.84
2023-03-03T22:51:14.195Z,101691.56
2023-03-03T22:54:16.782Z,101692.38
2023-03-03T22:57:19.419Z,101696.81
2023-03-03T23:00:22.541Z,101684.47
2023-03-03T23:03:26.558Z,101681.91
2023-03-03T23:06:29.293Z,101678.31
2023-03-03T23:09:31.917Z,101674.81
2023-03-03T23:12:34.560Z,101676.44
2023-03-03T23:15:37.256Z,101676.50
2023-03-03T23:18:41.208Z,101681.72
2023-03-03T23:21:43.817Z,101673.72
2023-03-03T23:24:46.428Z,101690.63
2023-03-03T23:27:49.017Z,101684.47
2023-03-03T23:30:52.401Z,101664.28
2023-03-03T23:33:56.706Z,101669.50
2023-03-03T23:36:59.429Z,101652.00
2023-03-03T23:40:02.055Z,101662.47
2023-03-03T23:43:04.644Z,101652.78
2023-03-03T23:46:07.239Z,101651.84
2023-03-03T23:49:11.171Z,101636.84
2023-03-03T23:52:13.742Z,101639.56
2023-03-03T23:55:16.653Z,101651.06
2023-03-03T23:58:19.319Z,101656.25
